createdAt,value
2022-09-07T00:04:10.789Z,0.00
2022-09-07T00:10:11.126Z,0.00
2022-09-07T00:16:11.590Z,0.00
2022-09-07T00:22:11.966Z,0.00
2022-09-07T00:28:12.296Z,0.00
2022-09-07T00:34:12.559Z,0.00
2022-09-07T00:40:12.925Z,0.00
2022-09-07T00:46:13.404Z,0.00
2022-09-07T00:52:13.730Z,0.00
2022-09-07T00:58:14.004Z,0.00
2022-09-07T01:04:14.389Z,0.00
2022-09-07T01:10:14.724Z,0.00
2022-09-07T01:16:15.155Z,0.45
2022-09-07T01:22:15.488Z,0.90
2022-09-07T01:28:15.843Z,0.90
2022-09-07T01:34:16.132Z,1.80
2022-09-07T01:40:16.461Z,2.25
2022-09-07T01:46:16.862Z,3.60
2022-09-07T01:52:17.216Z,4.05
2022-09-07T01:58:17.605Z,4.05
2022-09-07T02:04:18.222Z,4.50
2022-09-07T02:10:18.547Z,4.50
2022-09-07T02:16:19.037Z,4.05
2022-09-07T02:22:19.462Z,3.60
2022-09-07T02:28:19.849Z,3.60
2022-09-07T02:34:20.236Z,2.70
2022-09-07T02:40:20.662Z,2.25
2022-09-07T02:46:20.989Z,0.90
2022-09-07T02:52:21.376Z,0.45
2022-09-07T02:58:21.731Z,0.45
2022-09-07T03:04:22.164Z,0.00
2022-09-07T03:10:22.498Z,0.00
2022-09-07T03:16:22.861Z,0.00
2022-09-07T03:22:23.225Z,0.00
2022-09-07T03:28:23.627Z,0.00
2022-09-07T03:34:23.941Z,0.00
2022-09-07T03:40:24.295Z,0.00
2022-09-07T03:46:24.927Z,0.00
2022-09-07T03:52:25.339Z,0.00
2022-09-07T03:58:25.736Z,0.00
2022-09-07T04:04:26.070Z,0.00
2022-09-07T04:10:26.450Z,0.00
2022-09-07T04:16:26.837Z,0.00
2022-09-07T04:22:27.277Z,0.00
2022-09-07T04:28:27.755Z,0.00
2022-09-07T04:34:28.244Z,0.00
2022-09-07T04:40:28.623Z,0.00
2022-09-07T04:46:29.046Z,0.00
2022-09-07T04:52:29.438Z,0.00
2022-09-07T04:58:29.951Z,0.00
2022-09-07T05:04:30.328Z,0.00
2022-09-07T05:10:30.678Z,0.00
2022-09-07T05:16:31.116Z,0.00
2022-09-07T05:22:31.558Z,0.00
2022-09-07T05:28:32.190Z,0.00
2022-09-07T05:34:33.007Z,0.00
2022-09-07T05:40:38.460Z,0.00
2022-09-07T05:46:40.785Z,0.00
2022-09-07T05:52:41.153Z,0.00
2022-09-07T05:58:41.539Z,0.00
2022-09-07T06:04:41.934Z,0.00
2022-09-07T06:16:43.032Z,0.00
2022-09-07T06:22:43.464Z,0.00
2022-09-07T06:28:43.852Z,0.00
2022-09-07T06:34:44.228Z,0.00
2022-09-07T06:40:44.573Z,0.00
2022-09-07T06:47:04.826Z,0.00
2022-09-07T06:53:34.386Z,0.00
2022-09-07T06:59:34.841Z,0.00
2022-09-07T07:05:35.238Z,0.00
2022-09-07T07:11:35.632Z,0.00
2022-09-07T07:17:35.977Z,0.00
2022-09-07T07:23:36.261Z,0.00
2022-09-07T07:29:36.846Z,0.00
2022-09-07T07:35:37.263Z,0.00
2022-09-07T07:47:53.358Z,0.00
2022-09-07T07:53:53.858Z,0.00
2022-09-07T07:59:54.429Z,0.00
2022-09-07T08:05:54.821Z,0.00
2022-09-07T08:11:55.200Z,0.00
2022-09-07T08:17:55.610Z,0.00
2022-09-07T08:23:56.010Z,0.00
2022-09-07T08:29:56.362Z,0.00
2022-09-07T08:35:56.695Z,0.00
2022-09-07T08:41:56.984Z,0.00
2022-09-07T08:47:57.393Z,0.00
2022-09-07T08:53:57.740Z,0.00
2022-09-07T08:59:58.119Z,0.00
2022-09-07T09:05:58.854Z,0.00
2022-09-07T09:11:59.340Z,0.00
2022-09-07T09:17:59.732Z,0.00
2022-09-07T09:24:00.144Z,0.00
2022-09-07T09:30:00.486Z,0.00
2022-09-07T09:36:00.885Z,0.00
2022-09-07T09:42:01.387Z,0.00
2022-09-07T09:48:01.867Z,0.00
2022-09-07T09:54:02.305Z,0.00
2022-09-07T10:00:07.048Z,0.00
2022-09-07T10:06:09.125Z,0.00
2022-09-07T10:12:09.543Z,0.00
2022-09-07T10:18:09.941Z,0.00
2022-09-07T10:24:10.350Z,0.00
2022-09-07T10:30:10.709Z,0.00
2022-09-07T10:36:11.116Z,0.00
2022-09-07T10:42:11.516Z,0.00
2022-09-07T10:48:11.912Z,0.00
2022-09-07T10:54:31.704Z,0.00
2022-09-07T11:00:32.244Z,0.00
2022-09-07T11:06:32.653Z,0.00
2022-09-07T11:12:33.035Z,0.00
2022-09-07T11:18:33.431Z,0.00
2022-09-07T11:24:33.804Z,0.00
2022-09-07T11:30:34.341Z,0.00
2022-09-07T11:36:34.751Z,0.00
2022-09-07T11:42:43.194Z,0.00
2022-09-07T11:48:43.970Z,0.00
2022-09-07T11:54:44.413Z,0.00
2022-09-07T12:00:44.776Z,0.00
2022-09-07T12:06:45.163Z,0.00
2022-09-07T12:12:45.691Z,0.00
2022-09-07T12:18:46.065Z,0.00
2022-09-07T12:24:46.440Z,0.00
2022-09-07T12:30:46.754Z,0.00
2022-09-07T12:36:48.495Z,0.00
2022-09-07T12:42:48.883Z,0.00
2022-09-07T12:48:49.226Z,0.00
2022-09-07T12:54:59.832Z,0.00
2022-09-07T13:01:17.184Z,0.00
2022-09-07T13:07:17.556Z,0.00
2022-09-07T13:13:18.494Z,0.00
2022-09-07T13:19:18.928Z,0.00
2022-09-07T13:25:19.266Z,0.00
2022-09-07T13:31:19.673Z,0.00
2022-09-07T13:37:20.106Z,0.00
2022-09-07T13:43:20.602Z,0.00
2022-09-07T13:49:20.999Z,0.00
2022-09-07T13:55:25.721Z,0.00
2022-09-07T14:01:26.497Z,0.00
2022-09-07T14:07:26.997Z,0.00
2022-09-07T14:13:27.558Z,0.00
2022-09-07T14:19:27.964Z,0.00
2022-09-07T14:25:28.733Z,0.00
2022-09-07T14:31:29.743Z,0.00
2022-09-07T14:37:30.146Z,0.00
2022-09-07T14:43:30.542Z,0.00
2022-09-07T14:49:31.017Z,0.00
2022-09-07T14:55:31.399Z,0.00
2022-09-07T15:01:39.116Z,0.00
2022-09-07T15:07:39.672Z,0.00
2022-09-07T15:13:40.038Z,0.00
2022-09-07T15:19:40.466Z,0.00
2022-09-07T15:25:40.858Z,0.00
2022-09-07T15:31:43.379Z,0.00
2022-09-07T15:38:03.309Z,0.00
2022-09-07T15:44:05.424Z,0.00
2022-09-07T15:50:05.788Z,0.00
2022-09-07T15:56:06.120Z,0.00
2022-09-07T16:03:04.597Z,0.00
2022-09-07T16:09:06.092Z,0.00
2022-09-07T16:15:06.699Z,0.00
2022-09-07T16:21:11.819Z,0.00
2022-09-07T16:27:12.576Z,0.00
2022-09-07T16:33:13.202Z,0.00
2022-09-07T16:39:13.747Z,0.00
2022-09-07T16:51:44.484Z,0.00
2022-09-07T17:04:15.370Z,0.00
2022-09-07T17:10:15.782Z,0.00
2022-09-07T17:16:16.167Z,0.00
2022-09-07T17:22:16.654Z,0.00
2022-09-07T17:28:17.318Z,0.00
2022-09-07T17:34:17.678Z,0.00
2022-09-07T17:40:19.127Z,0.00
2022-09-07T17:46:25.540Z,0.00
2022-09-07T17:52:26.267Z,0.00
2022-09-07T17:58:26.631Z,0.00
2022-09-07T18:04:28.230Z,0.00
2022-09-07T18:11:45.162Z,0.00
2022-09-07T18:17:46.545Z,0.00
2022-09-07T18:23:46.947Z,0.00
2022-09-07T18:29:47.306Z,0.00
2022-09-07T18:35:47.793Z,0.00
2022-09-07T18:41:48.109Z,0.00
2022-09-07T18:47:48.491Z,0.00
2022-09-07T18:53:48.899Z,0.00
2022-09-07T18:59:49.201Z,0.00
2022-09-07T19:05:50.264Z,0.00
2022-09-07T19:11:51.108Z,0.00
2022-09-07T19:17:51.494Z,0.00
2022-09-07T19:23:51.965Z,0.00
2022-09-07T19:29:52.342Z,0.00
2022-09-07T19:35:52.849Z,0.00
2022-09-07T19:41:53.255Z,0.00
2022-09-07T19:47:53.582Z,0.00
2022-09-07T19:53:53.958Z,0.00
2022-09-07T19:59:54.354Z,0.00
2022-09-07T20:05:54.678Z,0.00
2022-09-07T20:11:55.046Z,0.00
2022-09-07T20:17:55.750Z,0.00
2022-09-07T20:23:56.151Z,0.00
2022-09-07T20:29:56.545Z,0.00
2022-09-07T20:35:56.935Z,0.00
2022-09-07T20:41:57.315Z,0.00
2022-09-07T20:47:57.734Z,0.00
2022-09-07T20:53:58.074Z,0.00
2022-09-07T20:59:58.415Z,0.00
2022-09-07T21:05:58.733Z,0.00
2022-09-07T21:11:59.310Z,0.00
2022-09-07T21:17:59.719Z,0.00
2022-09-07T21:24:00.189Z,0.00
2022-09-07T21:30:00.564Z,0.00
2022-09-07T21:36:00.861Z,0.00
2022-09-07T21:42:01.202Z,0.00
2022-09-07T21:48:01.539Z,0.00
2022-09-07T21:54:01.863Z,0.00
2022-09-07T22:00:02.348Z,0.00
2022-09-07T22:06:02.655Z,0.00
2022-09-07T22:12:02.974Z,0.00
2022-09-07T22:18:03.399Z,0.00
2022-09-07T22:24:03.722Z,0.00
2022-09-07T22:30:04.056Z,0.00
2022-09-07T22:36:06.583Z,0.00
2022-09-07T22:42:08.763Z,0.00
2022-09-07T22:48:09.144Z,0.00
2022-09-07T22:54:09.529Z,0.00
2022-09-07T23:00:09.842Z,0.00
2022-09-07T23:06:10.183Z,0.00
2022-09-07T23:12:10.489Z,0.00
2022-09-07T23:18:10.884Z,0.00
2022-09-07T23:24:11.294Z,0.00
2022-09-07T23:30:11.683Z,0.00
2022-09-07T23:36:12.029Z,0.00
2022-09-07T23:42:12.451Z,0.00
2022-09-07T23:48:12.836Z,0.00
2022-09-07T23:54:13.218Z,0.00
